createdAt,value
2018-08-09T00:02:26.056Z,101085.52
2018-08-09T00:04:54.151Z,101083.09
2018-08-09T00:07:22.204Z,101085.52
2018-08-09T00:09:50.220Z,101085.67
2018-08-09T00:12:18.243Z,101077.86
2018-08-09T00:14:46.289Z,101080.98
2018-08-09T00:17:14.348Z,101079.95
2018-08-09T00:19:42.383Z,101086.33
2018-08-09T00:22:10.407Z,101072.13
2018-08-09T00:24:38.420Z,101077.70
2018-08-09T00:27:06.608Z,101080.75
2018-08-09T00:29:34.621Z,101081.70
2018-08-09T00:32:02.638Z,101077.89
2018-08-09T00:34:30.660Z,101080.12
2018-08-09T00:36:58.696Z,101088.30
2018-08-09T00:39:26.732Z,101088.35
2018-08-09T00:41:54.763Z,101084.79
2018-08-09T00:44:22.788Z,101087.34
2018-08-09T00:46:50.823Z,101077.41
2018-08-09T00:49:18.992Z,101079.34
2018-08-09T00:51:47.012Z,101079.77
2018-08-09T00:54:15.059Z,101085.72
2018-08-09T00:56:43.073Z,101086.81
2018-08-09T00:59:11.096Z,101084.09
2018-08-09T01:01:39.141Z,101089.03
2018-08-09T01:04:07.164Z,101095.40
2018-08-09T01:06:35.193Z,101084.63
2018-08-09T01:09:06.784Z,101085.38
2018-08-09T01:11:41.384Z,101076.76
2018-08-09T01:14:09.412Z,101085.29
2018-08-09T01:16:37.463Z,101080.77
2018-08-09T01:19:05.487Z,101070.83
2018-08-09T01:21:33.702Z,101059.58
2018-08-09T01:24:01.796Z,101062.83
2018-08-09T01:26:29.855Z,101058.16
2018-08-09T01:28:57.873Z,101058.16
2018-08-09T01:31:33.221Z,101052.05
2018-08-09T01:34:02.138Z,101050.87
2018-08-09T01:36:30.191Z,101045.84
2018-08-09T01:38:58.215Z,101044.33
2018-08-09T01:41:26.659Z,101048.89
2018-08-09T01:43:56.976Z,101043.53
2018-08-09T01:46:25.419Z,101049.05
2018-08-09T01:48:53.828Z,101046.09
2018-08-09T01:51:21.844Z,101043.64
2018-08-09T01:53:50.468Z,101044.39
2018-08-09T01:56:18.497Z,101042.28
2018-08-09T01:58:46.732Z,101048.16
2018-08-09T02:01:14.916Z,101053.91
2018-08-09T02:03:43.360Z,101046.61
2018-08-09T02:06:11.395Z,101045.06
2018-08-09T02:08:39.416Z,101041.95
2018-08-09T02:11:08.192Z,101039.92
2018-08-09T02:13:36.212Z,101037.63
2018-08-09T02:16:04.996Z,101040.27
2018-08-09T02:18:33.048Z,101041.45
2018-08-09T02:21:01.090Z,101053.81
2018-08-09T02:23:29.121Z,101048.08
2018-08-09T02:25:57.147Z,101045.11
2018-08-09T02:28:25.173Z,101041.56
2018-08-09T02:30:53.202Z,101040.35
2018-08-09T02:33:21.219Z,101036.67
2018-08-09T02:35:49.236Z,101023.73
2018-08-09T02:38:17.261Z,101018.13
2018-08-09T02:40:45.285Z,101023.03
2018-08-09T02:43:13.302Z,101021.38
2018-08-09T02:45:41.332Z,101010.37
2018-08-09T02:48:09.362Z,101006.22
2018-08-09T02:50:37.389Z,101013.20
2018-08-09T02:53:05.417Z,101014.16
2018-08-09T02:55:33.475Z,101012.12
2018-08-09T02:58:01.513Z,101006.39
2018-08-09T03:00:29.552Z,101008.55
2018-08-09T03:02:57.594Z,101012.36
2018-08-09T03:05:25.625Z,101017.02
2018-08-09T03:07:53.645Z,101019.66
2018-08-09T03:10:21.659Z,101020.36
2018-08-09T03:12:49.681Z,101017.59
2018-08-09T03:15:17.717Z,101015.44
2018-08-09T03:17:45.764Z,101009.13
2018-08-09T03:20:13.802Z,101010.94
2018-08-09T03:22:41.947Z,101009.52
2018-08-09T03:25:09.984Z,101000.10
2018-08-09T03:27:38.021Z,101005.61
2018-08-09T03:30:06.489Z,101003.95
2018-08-09T03:32:34.524Z,100997.73
2018-08-09T03:35:02.640Z,100997.29
2018-08-09T03:37:30.680Z,101007.34
2018-08-09T03:39:58.712Z,101011.31
2018-08-09T03:42:26.747Z,101016.41
2018-08-09T03:44:54.931Z,101015.22
2018-08-09T03:47:22.984Z,101009.14
2018-08-09T03:49:51.032Z,101015.03
2018-08-09T03:52:19.064Z,101022.45
2018-08-09T03:54:47.101Z,101014.70
2018-08-09T03:57:15.161Z,101015.78
2018-08-09T03:59:43.265Z,101011.42
2018-08-09T04:02:11.258Z,101014.08
2018-08-09T04:04:39.290Z,101007.98
2018-08-09T04:07:07.312Z,101005.36
2018-08-09T04:09:35.349Z,101005.23
2018-08-09T04:12:03.535Z,100991.61
2018-08-09T04:14:31.436Z,100998.18
2018-08-09T04:16:59.488Z,100997.45
2018-08-09T04:19:27.524Z,100995.53
2018-08-09T04:21:55.564Z,101002.00
2018-08-09T04:24:23.761Z,101001.16
2018-08-09T04:26:51.820Z,101004.53
2018-08-09T04:29:19.853Z,101006.91
2018-08-09T04:31:47.892Z,101014.56
2018-08-09T04:34:15.932Z,101021.03
2018-08-09T04:36:43.968Z,101023.42
2018-08-09T04:39:11.992Z,101021.77
2018-08-09T04:41:40.015Z,101034.44
2018-08-09T04:44:08.064Z,101031.44
2018-08-09T04:46:36.090Z,101031.44
2018-08-09T04:49:04.908Z,101037.07
2018-08-09T04:51:32.952Z,101038.59
2018-08-09T04:54:01.008Z,101045.68
2018-08-09T04:56:29.029Z,101046.75
2018-08-09T04:58:57.069Z,101037.17
2018-08-09T05:01:25.108Z,101034.20
2018-08-09T05:03:53.128Z,101032.41
2018-08-09T05:06:21.197Z,101026.18
2018-08-09T05:08:49.236Z,101025.45
2018-08-09T05:11:17.288Z,101022.33
2018-08-09T05:13:45.325Z,101014.66
2018-08-09T05:16:13.368Z,101019.70
2018-08-09T05:18:41.416Z,101023.16
2018-08-09T05:21:10.203Z,101029.95
2018-08-09T05:23:38.240Z,101027.88
2018-08-09T05:26:06.424Z,101030.72
2018-08-09T05:28:34.444Z,101015.97
2018-08-09T05:31:02.468Z,101011.38
2018-08-09T05:33:30.653Z,101011.25
2018-08-09T05:35:58.672Z,101017.33
2018-08-09T05:38:26.703Z,101015.94
2018-08-09T05:43:29.940Z,101004.34
2018-08-09T05:45:57.964Z,101004.52
2018-08-09T05:48:26.002Z,100998.72
2018-08-09T05:50:54.239Z,100987.53
2018-08-09T05:53:22.267Z,100976.31
2018-08-09T05:55:50.284Z,100980.22
2018-08-09T05:58:18.332Z,100971.15
2018-08-09T06:00:46.356Z,100968.81
2018-08-09T06:03:14.416Z,100957.72
2018-08-09T06:05:42.519Z,100960.52
2018-08-09T06:08:10.468Z,100964.27
2018-08-09T06:10:38.503Z,100967.78
2018-08-09T06:13:06.562Z,100972.95
2018-08-09T06:15:34.594Z,100976.29
2018-08-09T06:18:02.629Z,100977.82
2018-08-09T06:20:30.700Z,100979.56
2018-08-09T06:22:58.884Z,100971.75
2018-08-09T06:25:26.912Z,100969.57
2018-08-09T06:27:55.065Z,100968.55
2018-08-09T06:30:23.084Z,100973.64
2018-08-09T06:32:51.104Z,100973.42
2018-08-09T06:35:19.121Z,100971.34
2018-08-09T06:37:47.148Z,100972.97
2018-08-09T06:40:15.169Z,100973.22
2018-08-09T06:42:44.263Z,100962.52
2018-08-09T06:45:12.495Z,100961.07
2018-08-09T06:47:40.589Z,100945.95
2018-08-09T06:50:09.848Z,100948.23
2018-08-09T06:52:37.992Z,100944.83
2018-08-09T06:55:06.079Z,100939.61
2018-08-09T06:57:34.292Z,100934.91
2018-08-09T07:00:02.424Z,100928.98
2018-08-09T07:02:30.452Z,100925.40
2018-08-09T07:04:58.472Z,100922.45
2018-08-09T07:07:26.500Z,100922.63
2018-08-09T07:09:54.532Z,100924.92
2018-08-09T07:12:22.540Z,100930.39
2018-08-09T07:14:50.544Z,100928.89
2018-08-09T07:17:18.556Z,100928.72
2018-08-09T07:19:46.573Z,100925.25
2018-08-09T07:22:14.610Z,100928.70
2018-08-09T07:24:42.628Z,100923.56
2018-08-09T07:27:10.652Z,100916.01
2018-08-09T07:29:38.660Z,100912.90
2018-08-09T07:32:06.954Z,100922.41
2018-08-09T07:34:34.968Z,100935.05
2018-08-09T07:37:02.992Z,100930.91
2018-08-09T07:39:31.068Z,100927.95
2018-08-09T07:41:59.040Z,100932.86
2018-08-09T07:44:27.064Z,100932.17
2018-08-09T07:46:55.085Z,100933.77
2018-08-09T07:49:23.102Z,100931.73
2018-08-09T07:51:51.120Z,100939.89
2018-08-09T07:54:19.163Z,100940.59
2018-08-09T07:56:47.345Z,100939.78
2018-08-09T07:59:15.356Z,100927.48
2018-08-09T08:01:43.374Z,100917.05
2018-08-09T08:04:11.390Z,100917.49
2018-08-09T08:06:39.392Z,100923.02
2018-08-09T08:09:09.120Z,100919.81
2018-08-09T08:11:37.172Z,100914.72
2018-08-09T08:14:05.349Z,100910.06
2018-08-09T08:16:33.444Z,100917.50
2018-08-09T08:19:01.702Z,100912.05
2018-08-09T08:21:29.725Z,100899.55
2018-08-09T08:23:57.753Z,100884.45
2018-08-09T08:26:25.840Z,100885.38
2018-08-09T08:28:53.868Z,100883.91
2018-08-09T08:31:21.968Z,100879.76
2018-08-09T08:33:49.996Z,100874.62
2018-08-09T08:36:18.162Z,100868.44
2018-08-09T08:38:46.310Z,100864.48
2018-08-09T08:41:14.540Z,100855.40
2018-08-09T08:43:42.657Z,100850.28
2018-08-09T08:46:10.721Z,100847.11
2018-08-09T08:48:38.732Z,100833.72
2018-08-09T08:51:06.747Z,100827.75
2018-08-09T08:53:34.761Z,100815.09
2018-08-09T08:56:02.768Z,100811.75
2018-08-09T08:58:30.808Z,100805.40
2018-08-09T09:00:59.380Z,100809.03
2018-08-09T09:03:27.373Z,100800.13
2018-08-09T09:05:55.393Z,100803.06
2018-08-09T09:08:23.407Z,100793.59
2018-08-09T09:10:54.776Z,100800.31
2018-08-09T09:13:23.400Z,100785.52
2018-08-09T09:15:51.428Z,100781.58
2018-08-09T09:18:19.451Z,100767.49
2018-08-09T09:20:47.497Z,100763.08
2018-08-09T09:23:15.532Z,100753.76
2018-08-09T09:25:43.853Z,100761.22
2018-08-09T09:28:11.904Z,100759.81
2018-08-09T09:30:39.925Z,100760.06
2018-08-09T09:33:07.960Z,100759.55
2018-08-09T09:35:36.032Z,100753.69
2018-08-09T09:38:05.180Z,100749.07
2018-08-09T09:40:33.250Z,100751.41
2018-08-09T09:43:01.269Z,100749.02
2018-08-09T09:45:29.337Z,100744.08
2018-08-09T09:47:57.419Z,100738.44
2018-08-09T09:50:25.444Z,100729.65
2018-08-09T09:52:53.472Z,100727.53
2018-08-09T09:55:21.488Z,100723.03
2018-08-09T09:57:49.560Z,100722.22
2018-08-09T10:00:22.881Z,100728.59
2018-08-09T10:02:50.888Z,100716.92
2018-08-09T10:05:19.116Z,100716.89
2018-08-09T10:07:47.149Z,100715.55
2018-08-09T10:10:15.164Z,100707.06
2018-08-09T10:12:43.439Z,100713.32
2018-08-09T10:15:11.790Z,100696.14
2018-08-09T10:17:40.152Z,100680.77
2018-08-09T10:20:08.853Z,100678.38
2018-08-09T10:22:37.000Z,100663.89
2018-08-09T10:25:05.541Z,100668.77
2018-08-09T10:27:33.580Z,100663.70
2018-08-09T10:30:01.676Z,100661.63
2018-08-09T10:32:29.773Z,100653.78
2018-08-09T10:34:57.793Z,100641.16
2018-08-09T10:37:25.897Z,100637.48
2018-08-09T10:39:53.975Z,100645.97
2018-08-09T10:42:21.997Z,100661.61
2018-08-09T10:44:50.130Z,100672.36
2018-08-09T10:47:18.491Z,100663.02
2018-08-09T10:49:46.530Z,100647.26
2018-08-09T10:52:14.559Z,100640.91
2018-08-09T10:54:42.693Z,100626.06
2018-08-09T10:57:10.765Z,100622.64
2018-08-09T10:59:38.785Z,100645.52
2018-08-09T11:02:07.022Z,100690.68
2018-08-09T11:04:35.060Z,100725.73
2018-08-09T11:07:03.376Z,100743.23
2018-08-09T11:09:31.395Z,100747.63
2018-08-09T11:11:59.416Z,100709.00
2018-08-09T11:14:27.454Z,100664.41
2018-08-09T11:16:55.517Z,100630.30
2018-08-09T11:19:23.736Z,100610.67
2018-08-09T11:21:51.809Z,100595.33
2018-08-09T11:24:20.841Z,100583.58
2018-08-09T11:26:49.039Z,100576.20
2018-08-09T11:29:17.056Z,100562.23
2018-08-09T11:31:45.084Z,100560.45
2018-08-09T11:34:13.392Z,100554.12
2018-08-09T11:36:41.416Z,100535.56
2018-08-09T11:39:11.243Z,100524.94
2018-08-09T11:41:39.252Z,100517.24
2018-08-09T11:44:07.618Z,100500.51
2018-08-09T11:46:35.645Z,100504.34
2018-08-09T11:49:03.966Z,100501.86
2018-08-09T11:51:32.129Z,100500.15
2018-08-09T11:54:00.393Z,100491.37
2018-08-09T11:56:28.450Z,100482.34
2018-08-09T11:58:56.548Z,100473.70
2018-08-09T12:01:24.623Z,100477.80
2018-08-09T12:03:53.151Z,100460.44
2018-08-09T12:06:21.188Z,100447.84
2018-08-09T12:08:49.208Z,100439.06
2018-08-09T12:11:17.383Z,100427.52
2018-08-09T12:13:45.457Z,100418.75
2018-08-09T12:16:13.662Z,100407.19
2018-08-09T12:18:41.721Z,100402.61
2018-08-09T12:21:09.741Z,100406.52
2018-08-09T12:23:37.774Z,100398.29
2018-08-09T12:26:05.949Z,100393.23
2018-08-09T12:28:34.119Z,100390.06
2018-08-09T12:31:02.129Z,100394.70
2018-08-09T12:33:30.484Z,100396.84
2018-08-09T12:35:58.512Z,100385.81
2018-08-09T12:38:26.544Z,100376.53
2018-08-09T12:40:54.564Z,100367.73
2018-08-09T12:43:22.588Z,100356.82
2018-08-09T12:45:50.639Z,100344.09
2018-08-09T12:48:18.894Z,100337.90
2018-08-09T12:50:47.080Z,100334.30
2018-08-09T12:53:15.040Z,100324.06
2018-08-09T12:55:43.104Z,100325.61
2018-08-09T12:58:11.117Z,100313.55
2018-08-09T13:00:39.160Z,100306.00
2018-08-09T13:03:07.172Z,100313.18
2018-08-09T13:05:35.255Z,100297.27
2018-08-09T13:08:03.282Z,100297.61
2018-08-09T13:10:31.296Z,100289.58
2018-08-09T13:12:59.336Z,100295.44
2018-08-09T13:15:27.365Z,100283.67
2018-08-09T13:17:55.445Z,100277.16
2018-08-09T13:20:23.496Z,100272.22
2018-08-09T13:22:52.092Z,100254.48
2018-08-09T13:25:20.296Z,100242.78
2018-08-09T13:27:48.797Z,100230.28
2018-08-09T13:30:16.858Z,100219.27
2018-08-09T13:32:45.265Z,100218.22
2018-08-09T13:35:13.340Z,100205.53
2018-08-09T13:37:41.522Z,100196.77
2018-08-09T13:40:10.604Z,100188.25
2018-08-09T13:42:39.301Z,100187.30
2018-08-09T13:45:09.761Z,100186.09
2018-08-09T13:47:37.828Z,100204.33
2018-08-09T13:50:06.508Z,100192.97
2018-08-09T13:52:35.076Z,100177.70
2018-08-09T13:55:03.117Z,100172.19
2018-08-09T13:57:31.140Z,100167.98
2018-08-09T13:59:59.173Z,100162.69
2018-08-09T14:02:27.480Z,100145.14
2018-08-09T14:04:55.512Z,100149.86
2018-08-09T14:07:23.620Z,100160.18
2018-08-09T14:09:51.676Z,100171.42
2018-08-09T14:12:19.755Z,100170.77
2018-08-09T14:14:47.835Z,100167.39
2018-08-09T14:17:15.866Z,100179.33
2018-08-09T14:19:43.896Z,100171.70
2018-08-09T14:22:11.917Z,100159.08
2018-08-09T14:24:40.073Z,100177.83
2018-08-09T14:27:08.001Z,100166.35
2018-08-09T14:29:36.281Z,100185.50
2018-08-09T14:32:05.173Z,100161.44
2018-08-09T14:34:33.212Z,100167.27
2018-08-09T14:37:01.264Z,100154.73
2018-08-09T14:39:29.716Z,100147.77
2018-08-09T14:41:58.084Z,100141.49
2018-08-09T14:44:26.218Z,100138.83
2018-08-09T14:46:54.269Z,100141.08
2018-08-09T14:49:22.316Z,100124.76
2018-08-09T14:51:50.440Z,100122.41
2018-08-09T14:54:18.464Z,100126.81
2018-08-09T14:56:46.589Z,100125.27
2018-08-09T14:59:14.605Z,100129.81
2018-08-09T15:01:42.729Z,100131.63
2018-08-09T15:04:10.813Z,100127.43
2018-08-09T15:06:39.400Z,100120.46
2018-08-09T15:09:09.057Z,100118.63
2018-08-09T15:11:37.229Z,100115.48
2018-08-09T15:14:06.257Z,100101.63
2018-08-09T15:16:34.301Z,100100.09
2018-08-09T15:19:02.889Z,100110.67
2018-08-09T15:21:31.149Z,100085.11
2018-08-09T15:23:59.175Z,100079.42
2018-08-09T15:26:27.428Z,100082.20
2018-08-09T15:28:55.464Z,100088.48
2018-08-09T15:31:23.572Z,100083.97
2018-08-09T15:33:51.629Z,100091.87
2018-08-09T15:36:19.636Z,100083.73
2018-08-09T15:38:47.653Z,100087.02
2018-08-09T15:41:15.751Z,100085.57
2018-08-09T15:43:43.922Z,100088.73
2018-08-09T15:46:11.944Z,100089.67
2018-08-09T15:48:39.963Z,100090.36
2018-08-09T15:51:07.992Z,100091.88
2018-08-09T15:53:36.214Z,100086.30
2018-08-09T15:56:04.624Z,100069.92
2018-08-09T15:58:32.677Z,100078.33
2018-08-09T16:01:00.730Z,100080.79
2018-08-09T16:03:28.862Z,100082.95
2018-08-09T16:05:56.877Z,100087.72
2018-08-09T16:08:24.897Z,100097.78
2018-08-09T16:10:52.965Z,100083.80
2018-08-09T16:13:21.060Z,100093.67
2018-08-09T16:15:49.072Z,100100.16
2018-08-09T16:18:17.109Z,100110.05
2018-08-09T16:20:45.202Z,100118.40
2018-08-09T16:23:13.357Z,100119.02
2018-08-09T16:25:41.404Z,100124.71
2018-08-09T16:28:09.509Z,100122.27
2018-08-09T16:30:37.593Z,100142.31
2018-08-09T16:33:05.908Z,100138.52
2018-08-09T16:35:34.125Z,100134.51
2018-08-09T16:38:02.416Z,100140.78
2018-08-09T16:40:30.472Z,100127.95
2018-08-09T16:42:58.565Z,100140.36
2018-08-09T16:45:26.628Z,100132.86
2018-08-09T16:47:54.891Z,100148.18
2018-08-09T16:50:24.592Z,100139.95
2018-08-09T16:52:52.716Z,100134.18
2018-08-09T16:55:22.036Z,100125.16
2018-08-09T16:57:50.365Z,100124.23
2018-08-09T17:00:19.978Z,100130.62
2018-08-09T17:02:48.641Z,100132.77
2018-08-09T17:05:20.961Z,100124.42
2018-08-09T17:07:49.022Z,100116.95
2018-08-09T17:10:18.363Z,100117.84
2018-08-09T17:12:46.676Z,100124.28
2018-08-09T17:15:19.563Z,100129.30
2018-08-09T17:17:47.583Z,100123.66
2018-08-09T17:20:19.805Z,100118.63
2018-08-09T17:22:47.836Z,100131.87
2018-08-09T17:25:15.970Z,100129.91
2018-08-09T17:27:45.021Z,100123.16
2018-08-09T17:30:14.393Z,100140.23
2018-08-09T17:32:42.620Z,100139.30
2018-08-09T17:35:11.760Z,100134.30
2018-08-09T17:37:40.017Z,100135.42
2018-08-09T17:40:11.089Z,100138.48
2018-08-09T17:42:39.143Z,100137.14
2018-08-09T17:45:08.961Z,100129.13
2018-08-09T17:47:36.993Z,100136.13
2018-08-09T17:50:05.877Z,100135.52
2018-08-09T17:52:34.145Z,100128.13
2018-08-09T17:55:02.589Z,100112.00
2018-08-09T17:57:30.692Z,100136.23
2018-08-09T17:59:58.709Z,100127.19
2018-08-09T18:02:26.832Z,100133.13
2018-08-09T18:04:54.935Z,100128.94
2018-08-09T18:07:22.981Z,100130.39
2018-08-09T18:09:51.001Z,100122.79
2018-08-09T18:12:19.025Z,100131.80
2018-08-09T18:14:47.193Z,100125.57
2018-08-09T18:17:15.208Z,100145.47
2018-08-09T18:19:43.256Z,100140.73
2018-08-09T18:22:12.218Z,100140.02
2018-08-09T18:24:40.263Z,100151.20
2018-08-09T18:27:08.536Z,100138.48
2018-08-09T18:29:36.584Z,100140.25
2018-08-09T18:32:04.792Z,100158.73
2018-08-09T18:34:33.090Z,100155.83
2018-08-09T18:37:01.257Z,100153.88
2018-08-09T18:39:29.349Z,100177.31
2018-08-09T18:41:57.392Z,100182.91
2018-08-09T18:44:25.568Z,100186.22
2018-08-09T18:46:53.583Z,100194.47
2018-08-09T18:49:21.592Z,100203.45
2018-08-09T18:51:49.779Z,100214.95
2018-08-09T18:54:17.800Z,100221.34
2018-08-09T18:56:45.823Z,100226.21
2018-08-09T18:59:13.889Z,100230.62
2018-08-09T19:01:42.533Z,100233.41
2018-08-09T19:04:10.540Z,100243.73
2018-08-09T19:06:38.575Z,100247.02
2018-08-09T19:09:08.151Z,100247.15
2018-08-09T19:11:36.165Z,100249.78
2018-08-09T19:14:04.872Z,100254.49
2018-08-09T19:16:32.937Z,100255.88
2018-08-09T19:19:01.369Z,100277.22
2018-08-09T19:21:29.429Z,100282.69
2018-08-09T19:23:57.464Z,100287.94
2018-08-09T19:26:25.504Z,100279.22
2018-08-09T19:28:53.532Z,100297.38
2018-08-09T19:31:21.544Z,100303.23
2018-08-09T19:33:49.577Z,100312.81
2018-08-09T19:36:17.638Z,100330.16
2018-08-09T19:38:46.098Z,100328.98
2018-08-09T19:41:14.054Z,100329.44
2018-08-09T19:43:42.128Z,100359.00
2018-08-09T19:46:10.164Z,100367.72
2018-08-09T19:48:38.212Z,100347.20
2018-08-09T19:51:06.322Z,100339.48
2018-08-09T19:53:34.356Z,100376.87
2018-08-09T19:56:02.389Z,100362.60
2018-08-09T19:58:30.410Z,100378.92
2018-08-09T20:00:58.436Z,100363.48
2018-08-09T20:03:26.451Z,100387.56
2018-08-09T20:05:54.493Z,100381.95
2018-08-09T20:08:22.528Z,100377.17
2018-08-09T20:10:50.576Z,100377.21
2018-08-09T20:13:18.610Z,100385.35
2018-08-09T20:15:46.788Z,100389.01
2018-08-09T20:18:14.805Z,100392.32
2018-08-09T20:20:42.829Z,100397.64
2018-08-09T20:23:10.869Z,100398.66
2018-08-09T20:25:38.894Z,100414.70
2018-08-09T20:28:06.938Z,100406.77
2018-08-09T20:30:34.949Z,100415.56
2018-08-09T20:33:02.962Z,100412.92
2018-08-09T20:35:30.983Z,100418.72
2018-08-09T20:37:58.996Z,100419.38
2018-08-09T20:40:27.001Z,100430.17
2018-08-09T20:42:55.212Z,100421.91
2018-08-09T20:45:24.204Z,100430.02
2018-08-09T20:47:52.520Z,100429.52
2018-08-09T20:50:24.560Z,100431.86
2018-08-09T20:52:52.727Z,100436.64
2018-08-09T20:55:21.050Z,100443.45
2018-08-09T20:57:49.998Z,100446.11
2018-08-09T21:00:26.716Z,100458.40
2018-08-09T21:02:56.009Z,100462.20
2018-08-09T21:05:28.452Z,100469.98
2018-08-09T21:07:56.796Z,100477.92
2018-08-09T21:10:25.395Z,100472.80
2018-08-09T21:12:53.420Z,100473.47
2018-08-09T21:15:21.785Z,100482.27
2018-08-09T21:17:49.976Z,100477.95
2018-08-09T21:20:18.050Z,100490.72
2018-08-09T21:22:47.300Z,100500.02
2018-08-09T21:25:15.364Z,100492.38
2018-08-09T21:27:43.948Z,100497.69
2018-08-09T21:30:14.377Z,100505.16
2018-08-09T21:32:42.432Z,100506.17
2018-08-09T21:35:10.922Z,100518.24
2018-08-09T21:37:39.615Z,100522.56
2018-08-09T21:40:08.962Z,100531.97
2018-08-09T21:42:36.996Z,100531.30
2018-08-09T21:45:07.252Z,100530.28
2018-08-09T21:47:35.572Z,100535.56
2018-08-09T21:50:03.743Z,100542.83
2018-08-09T21:52:31.780Z,100548.44
2018-08-09T21:55:00.544Z,100545.11
2018-08-09T21:57:28.564Z,100550.05
2018-08-09T21:59:56.596Z,100553.05
2018-08-09T22:02:24.616Z,100571.21
2018-08-09T22:04:58.004Z,100573.05
2018-08-09T22:07:31.289Z,100574.02
2018-08-09T22:10:04.560Z,100585.41
2018-08-09T22:12:38.149Z,100594.14
2018-08-09T22:15:11.668Z,100607.11
2018-08-09T22:17:45.153Z,100611.87
2018-08-09T22:20:18.575Z,100614.30
2018-08-09T22:22:46.598Z,100612.92
2018-08-09T22:25:14.865Z,100616.21
2018-08-09T22:27:43.478Z,100626.58
2018-08-09T22:30:14.464Z,100633.64
2018-08-09T22:32:43.980Z,100640.90
2018-08-09T22:35:12.037Z,100642.58
2018-08-09T22:37:40.168Z,100652.96
2018-08-09T22:40:08.210Z,100657.73
2018-08-09T22:42:36.576Z,100647.12
2018-08-09T22:45:04.921Z,100653.53
2018-08-09T22:47:32.943Z,100670.13
2018-08-09T22:50:00.961Z,100677.83
2018-08-09T22:52:29.160Z,100692.84
2018-08-09T22:54:57.256Z,100686.16
2018-08-09T22:57:25.312Z,100701.53
2018-08-09T22:59:53.336Z,100708.34
2018-08-09T23:02:21.361Z,100704.81
2018-08-09T23:04:49.424Z,100715.72
2018-08-09T23:07:17.407Z,100725.23
2018-08-09T23:09:45.673Z,100716.73
2018-08-09T23:12:13.692Z,100740.17
2018-08-09T23:14:41.704Z,100742.01
2018-08-09T23:17:09.733Z,100734.93
2018-08-09T23:19:38.177Z,100744.02
2018-08-09T23:22:06.238Z,100750.70
2018-08-09T23:24:34.236Z,100757.57
2018-08-09T23:27:02.472Z,100764.31
2018-08-09T23:29:30.553Z,100763.69
2018-08-09T23:31:58.563Z,100773.22
2018-08-09T23:34:26.592Z,100780.45
2018-08-09T23:36:54.612Z,100786.53
2018-08-09T23:39:22.638Z,100785.36
2018-08-09T23:41:50.899Z,100791.33
2018-08-09T23:44:18.916Z,100799.31
2018-08-09T23:46:47.093Z,100800.78
2018-08-09T23:49:15.154Z,100804.27
2018-08-09T23:51:43.492Z,100810.16
2018-08-09T23:54:11.523Z,100815.56
2018-08-09T23:56:39.536Z,100817.32
2018-08-09T23:59:07.596Z,100829.13
